createdAt,value
2022-08-30T00:03:07.277Z,83.22
2022-08-30T00:08:11.510Z,82.96
2022-08-30T00:13:15.254Z,82.84
2022-08-30T00:18:20.932Z,83.11
2022-08-30T00:23:28.068Z,83.05
2022-08-30T00:28:34.358Z,83.22
2022-08-30T00:33:37.646Z,83.16
2022-08-30T00:38:40.867Z,82.97
2022-08-30T00:43:44.272Z,83.21
2022-08-30T00:48:50.137Z,83.24
2022-08-30T00:53:56.972Z,83.06
2022-08-30T00:59:03.793Z,83.02
2022-08-30T01:04:09.991Z,83.08
2022-08-30T01:09:14.571Z,83.20
2022-08-30T01:14:18.948Z,83.08
2022-08-30T01:19:49.912Z,83.00
2022-08-30T01:24:57.952Z,82.98
2022-08-30T01:30:02.913Z,83.11
2022-08-30T01:35:07.681Z,83.00
2022-08-30T01:40:14.000Z,83.04
2022-08-30T01:45:17.602Z,82.95
2022-08-30T01:50:20.986Z,82.94
2022-08-30T01:55:24.687Z,83.08
2022-08-30T02:00:27.922Z,83.39
2022-08-30T02:05:31.548Z,83.25
2022-08-30T02:10:34.928Z,83.04
2022-08-30T02:15:41.535Z,83.21
2022-08-30T02:20:45.548Z,83.53
2022-08-30T02:25:48.653Z,83.72
2022-08-30T02:30:53.803Z,83.54
2022-08-30T02:35:57.117Z,83.50
2022-08-30T02:41:00.857Z,83.49
2022-08-30T02:46:04.825Z,83.29
2022-08-30T02:51:12.895Z,83.14
2022-08-30T02:56:16.508Z,83.26
2022-08-30T03:01:19.847Z,83.94
2022-08-30T03:06:23.156Z,84.94
2022-08-30T03:11:27.051Z,85.39
2022-08-30T03:16:30.391Z,85.75
2022-08-30T03:21:33.573Z,85.78
2022-08-30T03:26:36.982Z,85.97
2022-08-30T03:31:40.728Z,86.24
2022-08-30T03:36:57.229Z,86.63
2022-08-30T03:42:00.755Z,86.64
2022-08-30T03:47:06.099Z,86.78
2022-08-30T03:52:09.341Z,86.92
2022-08-30T03:57:13.413Z,87.38
2022-08-30T04:02:24.121Z,87.57
2022-08-30T04:07:27.434Z,87.36
2022-08-30T04:12:30.642Z,87.74
2022-08-30T04:17:34.156Z,88.31
2022-08-30T04:22:37.936Z,88.01
2022-08-30T04:27:40.983Z,87.66
2022-08-30T04:32:45.515Z,87.74
2022-08-30T04:37:48.733Z,87.46
2022-08-30T04:42:54.812Z,87.32
2022-08-30T04:47:58.025Z,87.43
2022-08-30T04:53:01.237Z,87.42
2022-08-30T04:58:06.175Z,87.47
2022-08-30T05:03:10.233Z,87.76
2022-08-30T05:08:20.110Z,87.54
2022-08-30T05:13:35.311Z,87.49
2022-08-30T05:18:40.337Z,87.28
2022-08-30T05:23:44.851Z,87.14
2022-08-30T05:28:49.657Z,87.57
2022-08-30T05:33:55.498Z,87.78
2022-08-30T05:39:00.642Z,88.00
2022-08-30T05:44:07.871Z,88.07
2022-08-30T05:49:11.029Z,87.85
2022-08-30T05:54:16.114Z,87.92
2022-08-30T05:59:19.408Z,87.63
2022-08-30T06:04:22.712Z,87.58
2022-08-30T06:09:25.909Z,87.63
2022-08-30T06:14:29.135Z,87.79
2022-08-30T06:19:32.429Z,87.94
2022-08-30T06:24:56.409Z,87.86
2022-08-30T06:29:59.662Z,87.42
2022-08-30T06:35:04.848Z,87.26
2022-08-30T06:40:09.638Z,86.54
2022-08-30T06:45:12.944Z,86.44
2022-08-30T06:50:18.538Z,86.44
2022-08-30T06:55:22.229Z,86.75
2022-08-30T07:00:25.669Z,86.37
2022-08-30T07:05:29.365Z,86.46
2022-08-30T07:10:32.574Z,85.94
2022-08-30T07:15:38.430Z,85.56
2022-08-30T07:20:41.753Z,85.44
2022-08-30T07:25:45.088Z,85.59
2022-08-30T07:30:48.382Z,84.83
2022-08-30T07:35:51.789Z,84.56
2022-08-30T07:40:55.407Z,83.68
2022-08-30T07:46:07.502Z,83.40
2022-08-30T07:51:18.621Z,83.00
2022-08-30T07:56:23.399Z,82.62
2022-08-30T08:01:26.578Z,81.65
2022-08-30T08:06:34.696Z,81.72
2022-08-30T08:11:40.991Z,81.30
2022-08-30T08:16:47.063Z,80.44
2022-08-30T08:21:59.393Z,81.16
2022-08-30T08:27:13.744Z,82.71
2022-08-30T08:32:16.963Z,83.57
2022-08-30T08:37:21.491Z,84.79
2022-08-30T08:42:54.809Z,84.93
2022-08-30T08:48:04.440Z,85.25
2022-08-30T08:53:46.085Z,85.01
2022-08-30T08:58:58.340Z,84.97
2022-08-30T09:04:13.284Z,84.70
2022-08-30T09:09:26.293Z,84.58
2022-08-30T09:14:48.166Z,84.35
2022-08-30T09:19:54.550Z,83.81
2022-08-30T09:25:13.355Z,83.65
2022-08-30T09:30:21.255Z,82.37
2022-08-30T09:35:44.330Z,82.43
2022-08-30T09:40:59.014Z,82.16
2022-08-30T09:46:02.147Z,80.90
2022-08-30T09:51:13.131Z,80.54
2022-08-30T09:56:52.560Z,80.31
2022-08-30T10:02:18.299Z,82.29
2022-08-30T10:07:49.798Z,82.82
2022-08-30T10:13:43.442Z,83.04
2022-08-30T10:18:56.831Z,83.92
2022-08-30T10:24:09.799Z,82.98
2022-08-30T10:29:18.622Z,82.86
2022-08-30T10:34:29.268Z,83.66
2022-08-30T10:39:42.453Z,84.32
2022-08-30T10:44:53.489Z,84.68
2022-08-30T10:50:08.064Z,84.61
2022-08-30T10:55:33.535Z,84.49
2022-08-30T11:00:59.467Z,84.11
2022-08-30T11:06:22.097Z,83.57
2022-08-30T11:11:59.019Z,82.90
2022-08-30T11:17:02.616Z,82.45
2022-08-30T11:22:39.011Z,81.99
2022-08-30T11:27:59.420Z,81.79
2022-08-30T11:33:11.656Z,82.07
2022-08-30T11:38:27.024Z,82.88
2022-08-30T11:43:36.703Z,83.05
2022-08-30T11:48:55.735Z,83.28
2022-08-30T11:54:26.725Z,84.68
2022-08-30T12:00:00.673Z,85.01
2022-08-30T12:05:05.251Z,85.46
2022-08-30T12:10:36.475Z,86.18
2022-08-30T12:16:02.171Z,85.95
2022-08-30T12:21:19.846Z,86.04
2022-08-30T12:26:25.069Z,85.61
2022-08-30T12:31:28.712Z,85.74
2022-08-30T12:36:54.045Z,85.68
2022-08-30T12:42:18.155Z,85.08
2022-08-30T12:47:44.909Z,84.99
2022-08-30T12:53:13.050Z,85.12
2022-08-30T12:58:18.523Z,84.47
2022-08-30T13:03:39.288Z,85.04
2022-08-30T13:08:46.298Z,85.25
2022-08-30T13:13:54.022Z,85.42
2022-08-30T13:19:35.446Z,85.71
2022-08-30T13:24:38.638Z,86.17
2022-08-30T13:29:42.095Z,85.85
2022-08-30T13:34:45.777Z,85.39
2022-08-30T13:39:49.560Z,85.32
2022-08-30T13:44:54.414Z,84.71
2022-08-30T13:49:57.922Z,84.46
2022-08-30T13:55:01.233Z,84.08
2022-08-30T14:00:18.309Z,84.33
2022-08-30T14:10:53.815Z,85.57
2022-08-30T14:21:26.623Z,85.30
2022-08-30T14:26:35.520Z,85.33
2022-08-30T14:31:40.919Z,84.89
2022-08-30T14:36:46.622Z,84.60
2022-08-30T14:41:55.319Z,84.92
2022-08-30T14:46:59.482Z,85.28
2022-08-30T14:52:04.320Z,85.00
2022-08-30T14:57:07.334Z,84.96
2022-08-30T15:02:10.359Z,83.74
2022-08-30T15:07:13.913Z,83.97
2022-08-30T15:12:17.226Z,84.28
2022-08-30T15:17:20.367Z,83.84
2022-08-30T15:22:23.640Z,84.32
2022-08-30T15:27:26.850Z,84.53
2022-08-30T15:32:30.125Z,84.55
2022-08-30T15:37:37.710Z,84.36
2022-08-30T15:42:40.729Z,84.24
2022-08-30T15:47:45.565Z,84.43
2022-08-30T15:52:48.562Z,84.51
2022-08-30T15:57:51.635Z,84.64
2022-08-30T16:02:54.653Z,84.57
2022-08-30T16:07:57.709Z,84.63
2022-08-30T16:13:01.889Z,84.48
2022-08-30T16:18:07.090Z,84.50
2022-08-30T16:23:12.838Z,84.65
2022-08-30T16:28:18.020Z,84.59
2022-08-30T16:33:21.458Z,84.89
2022-08-30T16:38:27.743Z,84.80
2022-08-30T16:43:31.151Z,84.71
2022-08-30T16:48:35.989Z,84.66
2022-08-30T16:53:40.819Z,84.76
2022-08-30T16:58:47.000Z,84.46
2022-08-30T17:03:51.948Z,84.49
2022-08-30T17:08:56.089Z,84.64
2022-08-30T17:14:01.610Z,84.64
2022-08-30T17:19:07.603Z,84.58
2022-08-30T17:24:10.889Z,84.92
2022-08-30T17:29:14.062Z,85.28
2022-08-30T17:34:24.139Z,85.55
2022-08-30T17:39:29.921Z,85.56
2022-08-30T17:44:41.965Z,85.38
2022-08-30T17:49:46.038Z,85.42
2022-08-30T17:54:50.908Z,85.29
2022-08-30T17:59:54.110Z,85.14
2022-08-30T18:04:59.133Z,85.06
2022-08-30T18:10:02.347Z,85.08
2022-08-30T18:15:12.135Z,85.01
2022-08-30T18:20:17.740Z,84.89
2022-08-30T18:25:21.584Z,84.69
2022-08-30T18:30:31.149Z,84.43
2022-08-30T18:35:37.785Z,84.67
2022-08-30T18:40:40.985Z,84.56
2022-08-30T18:45:49.007Z,84.42
2022-08-30T18:50:52.225Z,84.24
2022-08-30T18:55:55.810Z,84.07
2022-08-30T19:00:59.138Z,83.89
2022-08-30T19:06:06.914Z,83.74
2022-08-30T19:11:10.984Z,83.97
2022-08-30T19:16:14.480Z,83.92
2022-08-30T19:21:17.813Z,83.99
2022-08-30T19:26:24.281Z,84.14
2022-08-30T19:31:31.337Z,84.37
2022-08-30T19:36:35.203Z,84.39
2022-08-30T19:41:38.921Z,84.26
2022-08-30T19:46:42.159Z,84.17
2022-08-30T19:51:47.147Z,84.37
2022-08-30T19:56:50.523Z,84.46
2022-08-30T20:01:54.835Z,84.36
2022-08-30T20:06:58.146Z,84.42
2022-08-30T20:12:01.559Z,84.39
2022-08-30T20:17:05.074Z,84.41
2022-08-30T20:22:15.373Z,84.67
2022-08-30T20:27:18.757Z,84.93
2022-08-30T20:32:24.745Z,85.11
2022-08-30T20:37:30.006Z,85.01
2022-08-30T20:42:33.295Z,85.10
2022-08-30T20:47:38.873Z,85.29
2022-08-30T20:52:43.193Z,85.44
2022-08-30T20:57:46.409Z,85.43
2022-08-30T21:02:50.691Z,85.35
2022-08-30T21:07:54.151Z,85.53
2022-08-30T21:12:57.504Z,85.65
2022-08-30T21:18:01.078Z,85.79
2022-08-30T21:23:04.728Z,85.86
2022-08-30T21:28:09.038Z,85.86
2022-08-30T21:33:12.252Z,85.99
2022-08-30T21:38:15.968Z,85.99
2022-08-30T21:43:19.176Z,85.86
2022-08-30T21:48:22.383Z,85.74
2022-08-30T21:53:25.589Z,85.68
2022-08-30T21:58:28.818Z,85.78
2022-08-30T22:03:32.015Z,85.58
2022-08-30T22:08:35.944Z,85.83
2022-08-30T22:13:43.162Z,85.51
2022-08-30T22:18:47.786Z,85.86
2022-08-30T22:23:51.346Z,86.21
2022-08-30T22:28:54.968Z,86.29
2022-08-30T22:33:58.630Z,86.24
2022-08-30T22:39:04.535Z,86.32
2022-08-30T22:44:07.812Z,86.79
2022-08-30T22:49:12.458Z,86.84
2022-08-30T22:54:15.700Z,87.24
2022-08-30T22:59:18.976Z,87.29
2022-08-30T23:04:22.205Z,87.19
2022-08-30T23:09:29.282Z,87.35
2022-08-30T23:14:32.615Z,87.34
2022-08-30T23:19:35.798Z,87.27
2022-08-30T23:24:57.644Z,87.13
2022-08-30T23:30:20.005Z,87.32
2022-08-30T23:35:42.156Z,87.42
2022-08-30T23:41:03.797Z,87.53
2022-08-30T23:46:25.348Z,87.44
2022-08-30T23:51:46.975Z,87.55
2022-08-30T23:57:09.334Z,87.38
